createdAt,value
2019-05-22T00:00:34.818Z,13.30
2019-05-22T00:03:02.783Z,13.20
2019-05-22T00:05:50.757Z,13.60
2019-05-22T00:08:18.839Z,13.00
2019-05-22T00:10:48.788Z,13.20
2019-05-22T00:13:18.124Z,13.20
2019-05-22T00:15:47.958Z,13.20
2019-05-22T00:18:17.020Z,13.20
2019-05-22T00:20:44.920Z,13.20
2019-05-22T00:23:12.253Z,13.20
2019-05-22T00:25:59.613Z,13.10
2019-05-22T00:28:27.576Z,13.00
2019-05-22T00:30:56.773Z,13.20
2019-05-22T00:33:24.499Z,13.20
2019-05-22T00:36:12.831Z,13.10
2019-05-22T00:38:41.705Z,13.10
2019-05-22T00:41:11.278Z,13.20
2019-05-22T00:43:41.395Z,13.20
2019-05-22T00:46:11.345Z,13.20
2019-05-22T00:48:40.548Z,13.40
2019-05-22T00:51:47.288Z,13.50
2019-05-22T00:54:22.540Z,13.00
2019-05-22T00:56:55.555Z,13.30
2019-05-22T00:59:32.608Z,13.20
2019-05-22T01:02:19.380Z,12.60
2019-05-22T01:04:48.680Z,13.20
2019-05-22T01:07:21.740Z,14.00
2019-05-22T01:09:51.288Z,12.40
2019-05-22T01:12:21.401Z,13.20
2019-05-22T01:14:49.784Z,13.20
2019-05-22T01:17:19.584Z,13.20
2019-05-22T01:19:48.699Z,13.20
2019-05-22T01:22:17.307Z,13.20
2019-05-22T01:24:45.118Z,13.20
2019-05-22T01:27:13.388Z,13.20
2019-05-22T01:29:41.066Z,13.20
2019-05-22T01:32:20.113Z,13.20
2019-05-22T01:34:48.046Z,13.20
2019-05-22T01:37:17.511Z,13.20
2019-05-22T01:40:01.714Z,13.40
2019-05-22T01:42:34.374Z,13.30
2019-05-22T01:45:06.848Z,13.20
2019-05-22T01:47:44.445Z,13.20
2019-05-22T01:50:17.752Z,13.20
2019-05-22T01:52:47.885Z,12.40
2019-05-22T01:55:17.789Z,13.20
2019-05-22T01:57:46.050Z,12.70
2019-05-22T02:00:13.327Z,13.20
2019-05-22T02:02:42.234Z,13.20
2019-05-22T02:05:10.114Z,13.20
2019-05-22T02:07:57.055Z,13.20
2019-05-22T02:10:30.166Z,13.10
2019-05-22T02:12:58.737Z,13.20
2019-05-22T02:15:26.992Z,13.10
2019-05-22T02:18:15.700Z,13.20
2019-05-22T02:20:44.184Z,13.00
2019-05-22T02:23:11.916Z,13.20
2019-05-22T02:25:39.806Z,13.20
2019-05-22T02:28:08.593Z,13.20
2019-05-22T02:30:38.192Z,13.00
2019-05-22T02:33:06.281Z,13.60
2019-05-22T02:35:33.939Z,12.20
2019-05-22T02:38:01.194Z,13.20
2019-05-22T02:40:31.862Z,13.20
2019-05-22T02:42:59.401Z,13.20
2019-05-22T02:45:26.833Z,13.40
2019-05-22T02:47:56.480Z,13.00
2019-05-22T02:50:23.866Z,13.20
2019-05-22T02:53:11.988Z,13.20
2019-05-22T02:55:39.794Z,13.00
2019-05-22T02:58:08.334Z,13.20
2019-05-22T03:00:49.119Z,13.60
2019-05-22T03:03:36.961Z,12.50
2019-05-22T03:06:17.231Z,13.00
2019-05-22T03:09:13.145Z,12.80
2019-05-22T03:14:45.879Z,13.00
2019-05-22T03:17:24.700Z,12.40
2019-05-22T03:19:52.983Z,13.00
2019-05-22T03:22:30.444Z,13.10
2019-05-22T03:24:59.470Z,12.60
2019-05-22T03:27:42.760Z,13.10
2019-05-22T03:30:21.543Z,13.10
2019-05-22T03:32:50.674Z,13.10
2019-05-22T03:35:17.961Z,12.50
2019-05-22T03:38:05.604Z,12.60
2019-05-22T03:40:34.516Z,12.90
2019-05-22T03:43:24.000Z,13.10
2019-05-22T03:45:53.850Z,13.10
2019-05-22T03:48:34.451Z,13.00
2019-05-22T03:51:09.412Z,12.80
2019-05-22T03:53:36.748Z,13.10
2019-05-22T03:56:04.242Z,13.40
2019-05-22T03:58:32.068Z,13.10
2019-05-22T04:01:01.071Z,13.10
2019-05-22T04:03:48.096Z,13.60
2019-05-22T04:06:15.610Z,13.10
2019-05-22T04:08:43.148Z,13.00
2019-05-22T04:11:32.556Z,13.00
2019-05-22T04:14:00.533Z,13.00
2019-05-22T04:16:30.044Z,13.00
2019-05-22T04:18:58.078Z,13.00
2019-05-22T04:21:25.819Z,13.00
2019-05-22T04:23:53.243Z,13.20
2019-05-22T04:26:21.116Z,13.10
2019-05-22T04:28:52.271Z,12.20
2019-05-22T04:31:32.600Z,13.40
2019-05-22T04:34:00.039Z,13.10
2019-05-22T04:36:28.708Z,13.00
2019-05-22T04:39:00.160Z,13.10
2019-05-22T04:41:27.515Z,12.70
2019-05-22T04:43:55.188Z,13.10
2019-05-22T04:46:22.711Z,13.10
2019-05-22T04:49:10.305Z,13.10
2019-05-22T04:51:45.372Z,13.00
2019-05-22T04:54:12.815Z,12.70
2019-05-22T04:56:40.080Z,13.20
2019-05-22T04:59:08.343Z,13.20
2019-05-22T05:01:36.011Z,13.20
2019-05-22T05:04:03.959Z,13.50
2019-05-22T05:06:33.093Z,13.20
2019-05-22T05:09:00.880Z,13.20
2019-05-22T05:11:28.625Z,13.20
2019-05-22T05:13:55.772Z,14.30
2019-05-22T05:16:23.343Z,12.80
2019-05-22T05:18:50.666Z,13.30
2019-05-22T05:21:18.212Z,13.30
2019-05-22T05:23:46.345Z,13.20
2019-05-22T05:26:13.700Z,13.10
2019-05-22T05:28:41.621Z,13.30
2019-05-22T05:31:11.577Z,13.30
2019-05-22T05:33:52.270Z,13.30
2019-05-22T05:36:31.781Z,13.30
2019-05-22T05:38:59.838Z,13.10
2019-05-22T05:41:30.369Z,13.20
2019-05-22T05:43:57.942Z,13.30
2019-05-22T05:46:25.307Z,13.40
2019-05-22T05:48:54.411Z,13.40
2019-05-22T05:51:25.067Z,13.40
2019-05-22T05:54:01.853Z,13.00
2019-05-22T05:56:31.277Z,13.40
2019-05-22T05:58:59.692Z,13.50
2019-05-22T06:01:33.801Z,13.50
2019-05-22T06:04:03.214Z,13.50
2019-05-22T06:07:13.444Z,13.50
2019-05-22T06:09:40.752Z,13.50
2019-05-22T06:12:08.772Z,13.50
2019-05-22T06:14:37.859Z,13.60
2019-05-22T06:17:43.407Z,13.70
2019-05-22T06:20:11.879Z,13.70
2019-05-22T06:22:40.587Z,13.70
2019-05-22T06:25:09.719Z,13.70
2019-05-22T06:27:49.653Z,13.80
2019-05-22T06:30:37.864Z,13.80
2019-05-22T06:33:43.381Z,13.30
2019-05-22T06:36:14.048Z,13.80
2019-05-22T06:38:55.876Z,13.90
2019-05-22T06:41:26.717Z,13.90
2019-05-22T06:44:39.350Z,13.90
2019-05-22T06:47:08.858Z,14.00
2019-05-22T06:49:51.514Z,14.10
2019-05-22T06:52:19.142Z,14.40
2019-05-22T06:54:46.875Z,14.10
2019-05-22T06:57:43.711Z,14.10
2019-05-22T07:00:17.382Z,14.10
2019-05-22T07:02:44.967Z,14.10
2019-05-22T07:05:12.427Z,14.10
2019-05-22T07:07:39.971Z,14.10
2019-05-22T07:10:07.899Z,14.20
2019-05-22T07:12:35.700Z,14.20
2019-05-22T07:15:28.471Z,14.20
2019-05-22T07:17:57.211Z,14.20
2019-05-22T07:20:30.293Z,14.30
2019-05-22T07:22:59.730Z,14.40
2019-05-22T07:25:28.022Z,14.40
2019-05-22T07:27:55.298Z,14.50
2019-05-22T07:30:23.519Z,14.50
2019-05-22T07:32:50.972Z,14.50
2019-05-22T07:35:18.292Z,14.50
2019-05-22T07:37:49.479Z,14.70
2019-05-22T07:40:16.797Z,14.60
2019-05-22T07:42:44.424Z,14.60
2019-05-22T07:45:12.179Z,14.60
2019-05-22T07:47:40.258Z,14.60
2019-05-22T07:50:07.328Z,14.70
2019-05-22T07:52:34.581Z,14.70
2019-05-22T07:55:02.191Z,14.70
2019-05-22T07:57:30.061Z,14.70
2019-05-22T08:00:16.905Z,14.70
2019-05-22T08:02:46.836Z,14.50
2019-05-22T08:05:14.392Z,14.80
2019-05-22T08:07:41.938Z,14.80
2019-05-22T08:10:10.039Z,14.80
2019-05-22T08:12:37.678Z,14.90
2019-05-22T08:15:06.108Z,15.00
2019-05-22T08:17:33.623Z,15.00
2019-05-22T08:20:00.982Z,15.10
2019-05-22T08:22:28.528Z,15.10
2019-05-22T08:24:55.573Z,15.10
2019-05-22T08:27:23.133Z,15.20
2019-05-22T08:29:56.581Z,15.30
2019-05-22T08:32:21.881Z,15.30
2019-05-22T08:34:49.068Z,15.30
2019-05-22T08:37:17.604Z,15.30
2019-05-22T08:39:45.101Z,15.30
2019-05-22T08:42:14.721Z,15.40
2019-05-22T08:44:42.413Z,15.50
2019-05-22T08:47:11.141Z,15.60
2019-05-22T08:49:42.056Z,15.50
2019-05-22T08:52:22.498Z,15.60
2019-05-22T08:54:38.827Z,15.60
2019-05-22T08:57:08.136Z,15.70
2019-05-22T08:59:55.446Z,15.80
2019-05-22T09:02:22.865Z,15.90
2019-05-22T09:04:50.248Z,15.90
2019-05-22T09:07:18.839Z,16.00
2019-05-22T09:09:46.232Z,15.90
2019-05-22T09:12:15.796Z,16.00
2019-05-22T09:14:43.544Z,15.70
2019-05-22T09:17:11.095Z,16.10
2019-05-22T09:19:38.565Z,16.10
2019-05-22T09:22:07.862Z,16.20
2019-05-22T09:24:36.138Z,16.20
2019-05-22T09:27:04.737Z,16.30
2019-05-22T09:29:31.836Z,16.40
2019-05-22T09:31:59.399Z,16.40
2019-05-22T09:34:26.959Z,16.40
2019-05-22T09:36:54.053Z,16.40
2019-05-22T09:39:21.671Z,16.50
2019-05-22T09:41:49.437Z,16.60
2019-05-22T09:44:16.849Z,16.70
2019-05-22T09:46:44.542Z,16.80
2019-05-22T09:49:12.321Z,16.90
2019-05-22T09:51:40.179Z,17.00
2019-05-22T09:54:08.287Z,17.10
2019-05-22T09:56:55.518Z,17.20
2019-05-22T09:59:22.949Z,16.80
2019-05-22T10:01:50.496Z,17.30
2019-05-22T10:04:18.490Z,17.30
2019-05-22T10:06:45.816Z,17.20
2019-05-22T10:09:13.537Z,17.20
2019-05-22T10:11:40.914Z,17.30
2019-05-22T10:14:08.416Z,17.10
2019-05-22T10:16:36.952Z,17.70
2019-05-22T10:19:04.577Z,17.50
2019-05-22T10:21:52.583Z,17.50
2019-05-22T10:24:20.655Z,17.60
2019-05-22T10:26:48.018Z,17.70
2019-05-22T10:29:14.960Z,17.80
2019-05-22T10:31:42.634Z,18.00
2019-05-22T10:34:09.909Z,18.00
2019-05-22T10:36:37.182Z,18.00
2019-05-22T10:39:05.621Z,18.20
2019-05-22T10:41:33.270Z,18.20
2019-05-22T10:44:01.035Z,18.30
2019-05-22T10:46:28.887Z,17.90
2019-05-22T10:48:56.306Z,18.30
2019-05-22T10:51:39.689Z,18.40
2019-05-22T10:54:07.080Z,18.10
2019-05-22T10:56:53.711Z,18.40
2019-05-22T10:59:20.801Z,18.00
2019-05-22T11:01:48.562Z,18.60
2019-05-22T11:04:19.247Z,18.60
2019-05-22T11:06:45.870Z,18.50
2019-05-22T11:09:33.363Z,18.60
2019-05-22T11:12:00.600Z,18.30
2019-05-22T11:14:28.381Z,18.90
2019-05-22T11:16:56.697Z,18.90
2019-05-22T11:19:43.752Z,19.00
2019-05-22T11:22:10.931Z,18.80
2019-05-22T11:24:57.743Z,19.20
2019-05-22T11:27:25.914Z,19.20
2019-05-22T11:29:53.350Z,19.50
2019-05-22T11:32:20.893Z,19.60
2019-05-22T11:35:08.146Z,19.80
2019-05-22T11:37:49.133Z,20.00
2019-05-22T11:40:17.374Z,19.80
2019-05-22T11:42:45.721Z,20.00
2019-05-22T11:45:13.570Z,19.50
2019-05-22T11:47:40.598Z,19.70
2019-05-22T11:50:08.539Z,19.80
2019-05-22T11:52:36.257Z,19.90
2019-05-22T11:55:05.494Z,20.00
2019-05-22T11:57:33.359Z,20.00
2019-05-22T12:00:01.259Z,20.10
2019-05-22T12:02:49.942Z,20.20
2019-05-22T12:05:17.483Z,19.90
2019-05-22T12:07:45.635Z,20.30
2019-05-22T12:10:13.721Z,20.20
2019-05-22T12:12:41.440Z,20.40
2019-05-22T12:15:09.894Z,20.40
2019-05-22T12:17:56.632Z,20.50
2019-05-22T12:20:24.569Z,20.50
2019-05-22T12:22:52.249Z,20.70
2019-05-22T12:25:39.421Z,20.80
2019-05-22T12:28:06.517Z,21.00
2019-05-22T12:30:54.072Z,20.90
2019-05-22T12:33:21.396Z,21.10
2019-05-22T12:36:09.129Z,21.00
2019-05-22T12:38:37.168Z,21.10
2019-05-22T12:41:04.525Z,21.20
2019-05-22T12:43:33.272Z,21.30
2019-05-22T12:46:00.749Z,21.40
2019-05-22T12:48:31.003Z,21.50
2019-05-22T12:50:58.409Z,21.60
2019-05-22T12:53:25.736Z,21.70
2019-05-22T12:55:53.549Z,21.80
2019-05-22T12:58:21.620Z,21.70
2019-05-22T13:00:50.343Z,21.80
2019-05-22T13:03:18.233Z,21.80
2019-05-22T13:06:05.960Z,21.90
2019-05-22T13:08:34.595Z,21.70
2019-05-22T13:11:05.288Z,22.60
2019-05-22T13:13:32.114Z,21.80
2019-05-22T13:16:00.839Z,21.20
2019-05-22T13:18:28.797Z,22.30
2019-05-22T13:20:57.173Z,22.40
2019-05-22T13:23:45.117Z,22.40
2019-05-22T13:26:33.232Z,22.60
2019-05-22T13:29:01.079Z,22.80
2019-05-22T13:31:29.145Z,22.50
2019-05-22T13:34:16.476Z,22.50
2019-05-22T13:36:44.244Z,22.00
2019-05-22T13:39:12.534Z,22.60
2019-05-22T13:41:40.096Z,22.40
2019-05-22T13:44:31.047Z,22.50
2019-05-22T13:46:58.739Z,22.60
2019-05-22T13:49:27.754Z,22.50
2019-05-22T13:51:55.317Z,22.60
2019-05-22T13:54:43.382Z,22.60
2019-05-22T13:57:10.754Z,21.90
2019-05-22T13:59:38.612Z,22.50
2019-05-22T14:02:06.003Z,22.50
2019-05-22T14:04:33.294Z,22.50
2019-05-22T14:07:00.757Z,22.40
2019-05-22T14:09:29.384Z,22.50
2019-05-22T14:11:57.353Z,22.40
2019-05-22T14:14:24.501Z,22.40
2019-05-22T14:16:51.500Z,22.40
2019-05-22T14:19:38.307Z,22.30
2019-05-22T14:22:25.199Z,22.40
2019-05-22T14:24:52.653Z,22.50
2019-05-22T14:27:19.848Z,22.20
2019-05-22T14:29:47.238Z,22.20
2019-05-22T14:32:15.657Z,22.20
2019-05-22T14:34:43.409Z,22.10
2019-05-22T14:37:11.415Z,22.10
2019-05-22T14:39:38.315Z,22.10
2019-05-22T14:42:05.800Z,22.00
2019-05-22T14:44:34.011Z,21.90
2019-05-22T14:47:21.481Z,21.90
2019-05-22T14:49:49.426Z,21.60
2019-05-22T14:52:36.796Z,21.70
2019-05-22T14:55:04.811Z,21.80
2019-05-22T14:57:51.879Z,21.70
2019-05-22T15:00:21.414Z,21.70
2019-05-22T15:02:55.599Z,21.50
2019-05-22T15:05:18.678Z,21.20
2019-05-22T15:07:46.357Z,21.40
2019-05-22T15:10:21.390Z,21.40
2019-05-22T15:12:48.904Z,20.70
2019-05-22T15:15:17.784Z,21.00
2019-05-22T15:18:05.098Z,21.20
2019-05-22T15:20:36.720Z,21.20
2019-05-22T15:23:04.383Z,20.90
2019-05-22T15:25:31.819Z,20.90
2019-05-22T15:27:59.465Z,20.90
2019-05-22T15:30:26.935Z,20.90
2019-05-22T15:33:03.479Z,20.90
2019-05-22T15:35:30.877Z,21.00
2019-05-22T15:37:58.947Z,21.00
2019-05-22T15:40:27.396Z,21.00
2019-05-22T15:43:14.867Z,21.00
2019-05-22T15:46:01.889Z,20.90
2019-05-22T15:48:40.483Z,20.50
2019-05-22T15:51:08.588Z,20.60
2019-05-22T15:53:36.605Z,20.80
2019-05-22T15:56:03.855Z,20.70
2019-05-22T15:58:32.247Z,20.60
2019-05-22T16:01:41.735Z,21.00
2019-05-22T16:04:09.437Z,20.70
2019-05-22T16:06:37.708Z,20.20
2019-05-22T16:09:12.575Z,20.50
2019-05-22T16:11:41.067Z,20.50
2019-05-22T16:14:09.160Z,20.50
2019-05-22T16:16:37.169Z,20.40
2019-05-22T16:19:04.857Z,20.40
2019-05-22T16:22:26.709Z,20.30
2019-05-22T16:24:54.793Z,20.00
2019-05-22T16:27:22.320Z,20.30
2019-05-22T16:29:49.674Z,20.30
2019-05-22T16:32:17.081Z,20.30
2019-05-22T16:34:44.640Z,20.20
2019-05-22T16:37:12.298Z,20.20
2019-05-22T16:39:39.325Z,20.20
2019-05-22T16:42:07.429Z,20.20
2019-05-22T16:44:34.874Z,20.10
2019-05-22T16:47:01.791Z,20.00
2019-05-22T16:49:29.433Z,20.00
2019-05-22T16:51:57.829Z,19.90
2019-05-22T16:54:25.224Z,19.90
2019-05-22T16:56:52.158Z,20.00
2019-05-22T16:59:19.692Z,19.90
2019-05-22T17:01:58.466Z,19.90
2019-05-22T17:04:16.653Z,19.80
2019-05-22T17:06:44.671Z,19.80
2019-05-22T17:09:13.829Z,19.80
2019-05-22T17:11:41.359Z,19.70
2019-05-22T17:14:10.287Z,19.70
2019-05-22T17:16:39.137Z,19.70
2019-05-22T17:19:27.942Z,19.70
2019-05-22T17:21:56.159Z,19.40
2019-05-22T17:24:23.156Z,19.60
2019-05-22T17:26:51.933Z,19.60
2019-05-22T17:29:19.557Z,19.60
2019-05-22T17:32:07.588Z,19.50
2019-05-22T17:34:40.125Z,19.10
2019-05-22T17:37:10.887Z,19.40
2019-05-22T17:40:02.575Z,19.50
2019-05-22T17:42:44.595Z,18.90
2019-05-22T17:45:11.176Z,19.50
2019-05-22T17:47:58.103Z,19.30
2019-05-22T17:50:27.703Z,19.30
2019-05-22T17:52:56.261Z,19.30
2019-05-22T17:55:24.559Z,19.30
2019-05-22T17:57:52.457Z,19.30
2019-05-22T18:00:28.753Z,19.20
2019-05-22T18:02:56.409Z,19.20
2019-05-22T18:05:23.850Z,19.10
2019-05-22T18:07:51.037Z,19.10
2019-05-22T18:10:18.402Z,19.20
2019-05-22T18:12:45.333Z,19.10
2019-05-22T18:15:13.997Z,19.20
2019-05-22T18:17:41.095Z,19.20
2019-05-22T18:20:10.822Z,19.20
2019-05-22T18:22:38.301Z,19.20
2019-05-22T18:25:08.708Z,19.20
2019-05-22T18:27:35.894Z,19.20
2019-05-22T18:30:03.394Z,19.20
2019-05-22T18:32:50.972Z,19.20
2019-05-22T18:35:18.109Z,19.10
2019-05-22T18:37:45.589Z,19.20
2019-05-22T18:40:13.712Z,19.20
2019-05-22T18:43:01.101Z,19.20
2019-05-22T18:45:29.476Z,19.10
2019-05-22T18:48:19.364Z,19.10
2019-05-22T18:50:50.312Z,18.70
2019-05-22T18:53:37.791Z,19.00
2019-05-22T18:56:24.731Z,18.40
2019-05-22T18:59:05.284Z,18.50
2019-05-22T19:01:33.094Z,18.70
2019-05-22T19:04:21.657Z,19.20
2019-05-22T19:06:49.020Z,18.80
2019-05-22T19:09:16.035Z,18.80
2019-05-22T19:11:43.604Z,18.80
2019-05-22T19:14:11.127Z,18.70
2019-05-22T19:16:38.527Z,18.60
2019-05-22T19:19:05.611Z,18.60
2019-05-22T19:21:33.425Z,18.50
2019-05-22T19:24:00.373Z,18.50
2019-05-22T19:26:27.621Z,18.50
2019-05-22T19:28:55.195Z,18.50
2019-05-22T19:31:22.909Z,18.40
2019-05-22T19:33:50.048Z,18.40
2019-05-22T19:36:17.457Z,18.50
2019-05-22T19:38:45.173Z,18.30
2019-05-22T19:41:12.519Z,18.30
2019-05-22T19:43:40.285Z,18.30
2019-05-22T19:46:08.024Z,18.10
2019-05-22T19:48:35.174Z,18.20
2019-05-22T19:51:02.530Z,18.10
2019-05-22T19:53:30.358Z,18.00
2019-05-22T19:55:57.303Z,18.00
2019-05-22T19:58:24.751Z,17.90
2019-05-22T20:01:11.952Z,17.90
2019-05-22T20:03:39.225Z,17.10
2019-05-22T20:06:06.771Z,17.70
2019-05-22T20:08:36.460Z,17.70
2019-05-22T20:11:03.973Z,17.70
2019-05-22T20:13:31.390Z,17.60
2019-05-22T20:16:18.333Z,17.60
2019-05-22T20:18:45.764Z,16.90
2019-05-22T20:21:12.792Z,17.50
2019-05-22T20:23:40.435Z,17.40
2019-05-22T20:26:08.395Z,17.40
2019-05-22T20:28:35.934Z,17.30
2019-05-22T20:31:03.384Z,17.30
2019-05-22T20:33:31.216Z,17.20
2019-05-22T20:35:58.209Z,17.20
2019-05-22T20:38:25.557Z,17.10
2019-05-22T20:40:52.553Z,17.10
2019-05-22T20:43:20.371Z,17.00
2019-05-22T20:45:47.389Z,16.90
2019-05-22T20:48:21.568Z,17.00
2019-05-22T20:50:49.463Z,16.90
2019-05-22T20:53:18.777Z,16.80
2019-05-22T20:55:48.205Z,16.80
2019-05-22T20:58:19.234Z,16.80
2019-05-22T21:00:48.513Z,16.70
2019-05-22T21:03:16.724Z,16.70
2019-05-22T21:05:43.747Z,16.60
2019-05-22T21:08:11.479Z,16.60
2019-05-22T21:13:38.203Z,16.50
2019-05-22T21:16:06.934Z,16.10
2019-05-22T21:18:39.762Z,16.40
2019-05-22T21:21:08.484Z,15.80
2019-05-22T21:23:36.249Z,16.30
2019-05-22T21:26:22.762Z,16.30
2019-05-22T21:28:50.299Z,16.20
2019-05-22T21:31:17.616Z,16.20
2019-05-22T21:33:45.454Z,16.20
2019-05-22T21:36:13.292Z,16.20
2019-05-22T21:38:40.320Z,16.20
2019-05-22T21:41:09.718Z,16.20
2019-05-22T21:43:36.626Z,16.20
2019-05-22T21:46:03.715Z,16.20
2019-05-22T21:48:32.019Z,16.20
2019-05-22T21:51:20.094Z,16.10
2019-05-22T21:53:47.651Z,15.90
2019-05-22T21:56:14.867Z,16.10
2019-05-22T21:58:42.764Z,16.10
2019-05-22T22:01:18.318Z,16.20
2019-05-22T22:03:47.520Z,16.10
2019-05-22T22:07:05.286Z,16.10
2019-05-22T22:09:32.567Z,15.20
2019-05-22T22:12:00.801Z,16.10
2019-05-22T22:14:28.493Z,16.00
2019-05-22T22:16:55.830Z,16.00
2019-05-22T22:19:24.874Z,16.00
2019-05-22T22:22:13.602Z,15.60
2019-05-22T22:24:40.640Z,15.90
2019-05-22T22:27:09.816Z,15.90
2019-05-22T22:29:36.957Z,16.20
2019-05-22T22:32:10.303Z,15.90
2019-05-22T22:34:43.968Z,15.70
2019-05-22T22:37:12.474Z,15.60
2019-05-22T22:40:01.844Z,15.70
2019-05-22T22:42:42.359Z,15.30
2019-05-22T22:45:17.201Z,15.60
2019-05-22T22:47:45.202Z,15.60
2019-05-22T22:50:12.822Z,15.60
2019-05-22T22:53:00.219Z,15.60
2019-05-22T22:55:29.105Z,15.60
2019-05-22T22:57:56.495Z,15.60
2019-05-22T23:00:29.024Z,15.50
2019-05-22T23:02:56.854Z,15.60
2019-05-22T23:05:23.864Z,15.70
2019-05-22T23:08:10.719Z,15.60
2019-05-22T23:10:40.258Z,15.60
2019-05-22T23:13:08.979Z,15.50
2019-05-22T23:15:55.952Z,15.60
2019-05-22T23:19:06.597Z,15.10
2019-05-22T23:21:35.218Z,15.60
2019-05-22T23:24:01.475Z,15.60
2019-05-22T23:26:29.583Z,15.50
2019-05-22T23:28:56.560Z,15.60
2019-05-22T23:31:23.598Z,15.60
2019-05-22T23:33:51.430Z,15.60
2019-05-22T23:36:19.963Z,15.50
2019-05-22T23:38:47.584Z,15.60
2019-05-22T23:41:14.722Z,15.70
2019-05-22T23:43:42.194Z,15.60
2019-05-22T23:46:10.903Z,15.60
2019-05-22T23:48:38.319Z,15.60
2019-05-22T23:51:05.424Z,15.60
2019-05-22T23:53:34.620Z,15.60
2019-05-22T23:56:03.668Z,15.60
2019-05-22T23:58:30.956Z,15.60
